Time;durP1;ratioP1;P1;durP2;ratioP2;P2;SDS_P1;SDS_P2;PMS_P1;PMS_P2;Temp;Humidity;BMP_temperature;BMP_pressure;BME280_temperature;BME280_humidity;BME280_pressure;Samples;Min_cycle;Max_cycle;Signal;HPM_P1;HPM_P2
2021/06/13 00:01:21;;;;;;;;;;;;;;;;;;5028814;28;20149;-58
2021/06/13 00:03:47;;;;;;;8.85;2.03;;;;;;;;;;5036384;28;19921;-59
2021/06/13 00:06:14;;;;;;;14.73;2.83;;;;;;;;;;5027324;28;20044;-58
2021/06/13 00:08:41;;;;;;;12.10;2.50;;;;;;;;;;5024365;28;20045;-58
2021/06/13 00:11:08;;;;;;;11.60;2.70;;;;;;;;;;5023398;28;20049;-58
2021/06/13 00:13:35;;;;;;;9.77;1.90;;;;;;;;;;5027918;28;20025;-59
2021/06/13 00:16:03;;;;;;;11.00;3.13;;;;;;;;;;5023654;28;20065;-58
2021/06/13 00:18:30;;;;;;;14.43;2.33;;;;;;;;;;5023449;28;20034;-58
2021/06/13 00:20:57;;;;;;;8.15;1.92;;;;;;;;;;5028420;28;20072;-58
2021/06/13 00:23:24;;;;;;;6.85;1.73;;;;;;;;;;5023647;28;20043;-58
2021/06/13 00:26:11;;;;;;;8.50;2.13;;;;;;;;;;5029534;28;20420;-59
2021/06/13 00:28:38;;;;;;;9.82;1.90;;;;;;;;;;5024221;28;20038;-57
2021/06/13 00:31:06;;;;;;;8.05;1.90;;;;;;;;;;5020347;28;20072;-58
2021/06/13 00:33:33;;;;;;;7.97;1.85;;;;;;;;;;5027508;28;20037;-57
2021/06/13 00:36:02;;;;;;;10.70;1.67;;;;;;;;;;5026362;28;20076;-58
2021/06/13 00:38:28;;;;;;;11.98;2.75;;;;;;;;;;5030019;28;20724;-58
2021/06/13 00:40:55;;;;;;;11.20;2.17;;;;;;;;;;5029804;28;20044;-58
2021/06/13 00:43:23;;;;;;;;;;;;;;;;;;5025063;28;20060;-59
2021/06/13 00:45:50;;;;;;;8.98;2.08;;;;;;;;;;5025961;28;19967;-58
2021/06/13 00:48:17;;;;;;;12.17;2.67;;;;;;;;;;5021710;28;20041;-57
2021/06/13 00:50:46;;;;;;;6.63;1.60;;;;;;;;;;5027908;28;20296;-57
2021/06/13 00:53:15;;;;;;;7.28;2.00;;;;;;;;;;5026686;28;20045;-57
2021/06/13 00:55:50;;;;;;;10.48;1.90;;;;;;;;;;5023898;28;20061;-57
2021/06/13 00:58:17;;;;;;;12.57;1.80;;;;;;;;;;5021296;28;20042;-57
2021/06/13 01:00:44;;;;;;;11.55;2.05;;;;;;;;;;5025795;28;20052;-57
2021/06/13 01:03:11;;;;;;;8.43;2.20;;;;;;;;;;5020996;28;20052;-58
2021/06/13 01:05:38;;;;;;;8.15;1.60;;;;;;;;;;5020135;28;20433;-59
2021/06/13 01:08:06;;;;;;;8.75;2.20;;;;;;;;;;5021594;28;20046;-58
2021/06/13 01:10:36;;;;;;;8.70;1.77;;;;;;;;;;5019666;28;20100;-57
2021/06/13 01:13:06;;;;;;;7.32;1.83;;;;;;;;;;5015419;28;20072;-58
2021/06/13 01:15:59;;;;;;;20.67;2.00;;;;;;;;;;5015509;28;20057;-58
2021/06/13 01:18:30;;;;;;;10.38;1.80;;;;;;;;;;5028983;28;20046;-58
2021/06/13 01:21:06;;;;;;;8.18;1.80;;;;;;;;;;5014432;28;20485;-57
2021/06/13 01:23:50;;;;;;;5.32;1.63;;;;;;;;;;5022048;28;20060;-58
2021/06/13 01:26:28;;;;;;;6.78;2.15;;;;;;;;;;5020632;28;20104;-58
2021/06/13 01:28:59;;;;;;;10.93;2.22;;;;;;;;;;5022765;28;20045;-58
2021/06/13 01:31:32;;;;;;;6.03;1.50;;;;;;;;;;5027318;28;20075;-58
2021/06/13 01:34:00;;;;;;;6.22;1.60;;;;;;;;;;5024259;28;20521;-58
2021/06/13 01:36:32;;;;;;;10.60;1.60;;;;;;;;;;5021288;28;20041;-59
2021/06/13 01:39:00;;;;;;;5.45;1.35;;;;;;;;;;5027098;28;20493;-57
2021/06/13 01:41:29;;;;;;;9.75;1.50;;;;;;;;;;5020409;28;20045;-57
2021/06/13 01:43:57;;;;;;;6.60;1.73;;;;;;;;;;5023036;28;20092;-58
2021/06/13 01:46:25;;;;;;;6.40;1.58;;;;;;;;;;5022918;28;20041;-58
2021/06/13 01:48:54;;;;;;;7.10;1.95;;;;;;;;;;5027007;28;20055;-56
2021/06/13 01:51:21;;;;;;;7.30;1.25;;;;;;;;;;5040683;28;20041;-58
2021/06/13 01:53:49;;;;;;;4.65;1.73;;;;;;;;;;5028490;28;20060;-57
2021/06/13 01:56:20;;;;;;;3.20;1.17;;;;;;;;;;5037735;28;20133;-58
2021/06/13 01:58:49;;;;;;;11.15;1.50;;;;;;;;;;5022065;28;20060;-59
2021/06/13 02:01:31;;;;;;;3.60;1.42;;;;;;;;;;5038757;28;20088;-57
2021/06/13 02:04:00;;;;;;;11.38;1.80;;;;;;;;;;5030277;28;20053;-58
2021/06/13 02:06:47;;;;;;;6.28;1.90;;;;;;;;;;5025532;28;20497;-58
2021/06/13 02:09:20;;;;;;;6.80;1.40;;;;;;;;;;5019416;28;20049;-57
2021/06/13 02:11:54;;;;;;;5.93;1.73;;;;;;;;;;5014912;28;20080;-58
2021/06/13 02:14:22;;;;;;;8.30;2.03;;;;;;;;;;5023178;28;20111;-58
2021/06/13 02:16:56;;;;;;;8.77;1.65;;;;;;;;;;5020384;28;20512;-58
2021/06/13 02:19:23;;;;;;;7.95;1.35;;;;;;;;;;5016451;28;20066;-57
2021/06/13 02:21:57;;;;;;;6.78;1.75;;;;;;;;;;5018953;28;20578;-56
2021/06/13 02:24:32;;;;;;;10.23;1.60;;;;;;;;;;5020318;28;20046;-58
2021/06/13 02:27:01;;;;;;;3.63;1.42;;;;;;;;;;5035419;28;20091;-57
2021/06/13 02:29:29;;;;;;;8.30;1.90;;;;;;;;;;5025864;28;20463;-56
2021/06/13 02:31:57;;;;;;;4.10;1.67;;;;;;;;;;5027331;28;20061;-57
2021/06/13 02:34:29;;;;;;;9.13;1.90;;;;;;;;;;5038847;28;20508;-59
2021/06/13 02:36:59;;;;;;;10.15;1.85;;;;;;;;;;5043170;28;20052;-57
2021/06/13 02:39:26;;;;;;;7.07;1.58;;;;;;;;;;5028279;28;20049;-57
2021/06/13 02:41:57;;;;;;;12.07;2.15;;;;;;;;;;5031346;28;20168;-56
2021/06/13 02:44:28;;;;;;;6.50;1.95;;;;;;;;;;5028265;28;20064;-58
2021/06/13 02:46:55;;;;;;;8.65;1.40;;;;;;;;;;5023696;28;20072;-57
2021/06/13 02:49:22;;;;;;;8.27;1.73;;;;;;;;;;5034051;28;20073;-57
2021/06/13 02:52:08;;;;;;;4.80;1.50;;;;;;;;;;5037363;28;20132;-57
2021/06/13 02:54:37;;;;;;;4.65;1.23;;;;;;;;;;5026885;28;20045;-57
2021/06/13 02:57:07;;;;;;;4.95;1.52;;;;;;;;;;5024927;28;20759;-57
2021/06/13 02:59:43;;;;;;;8.75;1.60;;;;;;;;;;5040497;28;20124;-56
2021/06/13 03:02:13;;;;;;;5.63;1.20;;;;;;;;;;5030615;28;20041;-58
2021/06/13 03:04:44;;;;;;;4.70;1.63;;;;;;;;;;5032097;28;20038;-57
2021/06/13 03:07:16;;;;;;;6.40;1.65;;;;;;;;;;5028444;28;20038;-57
2021/06/13 03:09:44;;;;;;;4.97;1.10;;;;;;;;;;5028978;28;20041;-58
2021/06/13 03:12:16;;;;;;;10.38;1.80;;;;;;;;;;5022867;28;20096;-56
2021/06/13 03:14:44;;;;;;;3.97;1.20;;;;;;;;;;5024187;28;20049;-58
2021/06/13 03:17:11;;;;;;;2.55;1.20;;;;;;;;;;5025014;28;20038;-59
2021/06/13 03:19:41;;;;;;;6.43;1.30;;;;;;;;;;5020537;28;20061;-58
2021/06/13 03:22:10;;;;;;;2.95;0.90;;;;;;;;;;5026947;28;20089;-58
2021/06/13 03:24:39;;;;;;;7.13;1.00;;;;;;;;;;5030713;28;20124;-58
2021/06/13 03:27:07;;;;;;;2.95;0.95;;;;;;;;;;5031697;28;20068;-59
2021/06/13 03:29:38;;;;;;;3.92;0.98;;;;;;;;;;5027806;28;20053;-58
2021/06/13 03:32:08;;;;;;;2.80;0.98;;;;;;;;;;5029599;28;20046;-58
2021/06/13 03:34:37;;;;;;;2.97;0.85;;;;;;;;;;5031400;28;20068;-58
2021/06/13 03:37:05;;;;;;;4.10;0.88;;;;;;;;;;5025504;28;20489;-58
2021/06/13 03:39:32;;;;;;;;;;;;;;;;;;5028412;28;20495;-59
2021/06/13 03:42:01;;;;;;;2.55;0.98;;;;;;;;;;5024722;28;19921;-57
2021/06/13 03:44:28;;;;;;;5.43;1.30;;;;;;;;;;5020527;28;20083;-58
2021/06/13 03:46:55;;;;;;;5.97;1.40;;;;;;;;;;5019457;28;20520;-58
2021/06/13 03:49:22;;;;;;;;;;;;;;;;;;5031897;28;20057;-56
2021/06/13 03:51:51;;;;;;;2.25;0.65;;;;;;;;;;5020993;28;19925;-57
2021/06/13 03:54:18;;;;;;;1.67;0.60;;;;;;;;;;5023661;28;20148;-58
2021/06/13 03:56:49;;;;;;;3.00;0.65;;;;;;;;;;5029942;28;20049;-58
2021/06/13 03:59:22;;;;;;;0.98;0.47;;;;;;;;;;5022690;28;20409;-57
2021/06/13 04:01:52;;;;;;;1.65;0.50;;;;;;;;;;5030308;28;20050;-59
2021/06/13 04:04:19;;;;;;;2.55;0.45;;;;;;;;;;5024885;28;20050;-58
2021/06/13 04:06:47;;;;;;;0.98;0.43;;;;;;;;;;5018892;28;20283;-59
2021/06/13 04:09:16;;;;;;;2.22;0.52;;;;;;;;;;5025231;28;20203;-59
2021/06/13 04:11:44;;;;;;;1.42;0.55;;;;;;;;;;5020573;28;20568;-59
2021/06/13 04:14:11;;;;;;;3.95;0.80;;;;;;;;;;5028059;28;20038;-59
2021/06/13 04:16:40;;;;;;;1.30;0.40;;;;;;;;;;5025186;28;20091;-59
2021/06/13 04:19:07;;;;;;;5.32;0.68;;;;;;;;;;5025624;28;20434;-59
2021/06/13 04:21:36;;;;;;;0.57;0.38;;;;;;;;;;5022908;28;20054;-59
2021/06/13 04:24:06;;;;;;;2.80;0.60;;;;;;;;;;5024034;28;20149;-59
2021/06/13 04:26:33;;;;;;;2.60;0.70;;;;;;;;;;5022364;28;20049;-59
2021/06/13 04:28:59;;;;;;;0.93;0.50;;;;;;;;;;5025650;28;20041;-59
2021/06/13 04:31:28;;;;;;;1.65;0.32;;;;;;;;;;5028674;28;20045;-59
2021/06/13 04:33:55;;;;;;;1.40;0.40;;;;;;;;;;5022781;28;20080;-58
2021/06/13 04:36:22;;;;;;;0.60;0.40;;;;;;;;;;5022825;28;20042;-59
2021/06/13 04:38:49;;;;;;;1.05;0.40;;;;;;;;;;5024550;28;20452;-59
2021/06/13 04:41:17;;;;;;;0.77;0.40;;;;;;;;;;5025562;28;20523;-58
2021/06/13 04:43:44;;;;;;;1.45;0.57;;;;;;;;;;5026285;28;20038;-59
2021/06/13 04:46:13;;;;;;;1.52;0.35;;;;;;;;;;5021113;28;20041;-58
2021/06/13 04:48:40;;;;;;;1.40;0.40;;;;;;;;;;5027569;28;20091;-58
2021/06/13 04:51:09;;;;;;;2.05;0.43;;;;;;;;;;5024119;28;20049;-58
2021/06/13 04:53:48;;;;;;;1.70;0.60;;;;;;;;;;5024402;28;20056;-58
2021/06/13 04:56:20;;;;;;;3.05;0.70;;;;;;;;;;5023628;28;20527;-58
2021/06/13 04:58:47;;;;;;;3.45;0.40;;;;;;;;;;5022143;28;20046;-58
2021/06/13 05:01:14;;;;;;;1.37;0.50;;;;;;;;;;5020236;28;20037;-59
2021/06/13 05:03:44;;;;;;;2.27;0.70;;;;;;;;;;5027816;28;20521;-59
2021/06/13 05:06:11;;;;;;;3.75;0.77;;;;;;;;;;5027040;28;20041;-58
2021/06/13 05:08:41;;;;;;;2.97;0.60;;;;;;;;;;5033576;28;20045;-58
2021/06/13 05:11:09;;;;;;;1.25;0.50;;;;;;;;;;5019757;28;20125;-58
2021/06/13 05:13:36;;;;;;;;;;;;;;;;;;5026412;28;20128;-58
2021/06/13 05:16:04;;;;;;;2.10;0.40;;;;;;;;;;5021467;28;19991;-59
2021/06/13 05:18:31;;;;;;;0.77;0.57;;;;;;;;;;5020380;28;20045;-59
2021/06/13 05:20:58;;;;;;;;;;;;;;;;;;5032030;28;20045;-57
2021/06/13 05:23:25;;;;;;;2.53;0.60;;;;;;;;;;5023534;28;20422;-56
2021/06/13 05:25:53;;;;;;;1.45;0.60;;;;;;;;;;5028366;28;20049;-57
2021/06/13 05:28:21;;;;;;;2.72;0.68;;;;;;;;;;5023403;28;20048;-58
2021/06/13 05:30:49;;;;;;;1.33;0.45;;;;;;;;;;5024093;28;20494;-57
2021/06/13 05:33:16;;;;;;;2.95;0.40;;;;;;;;;;5027890;28;20060;-56
2021/06/13 05:35:47;;;;;;;1.17;0.30;;;;;;;;;;5028435;28;20049;-56
2021/06/13 05:38:14;;;;;;;4.07;0.80;;;;;;;;;;5023177;28;20037;-56
2021/06/13 05:40:41;;;;;;;0.53;0.53;;;;;;;;;;5019875;28;20081;-57
2021/06/13 05:43:09;;;;;;;0.63;0.30;;;;;;;;;;5020054;28;20033;-57
2021/06/13 05:45:38;;;;;;;0.60;0.50;;;;;;;;;;5017159;28;20100;-55
2021/06/13 05:48:04;;;;;;;1.83;0.50;;;;;;;;;;5015605;28;20073;-57
2021/06/13 05:50:32;;;;;;;1.60;0.77;;;;;;;;;;5019031;28;20048;-57
2021/06/13 05:52:59;;;;;;;2.60;0.70;;;;;;;;;;5011270;28;20452;-59
2021/06/13 05:55:28;;;;;;;0.40;0.25;;;;;;;;;;5019706;28;20069;-57
2021/06/13 05:57:55;;;;;;;2.78;0.65;;;;;;;;;;5021623;28;20072;-57
2021/06/13 06:00:24;;;;;;;1.30;0.50;;;;;;;;;;5024726;28;20100;-57
2021/06/13 06:02:51;;;;;;;1.90;0.80;;;;;;;;;;5026560;28;20347;-56
2021/06/13 06:05:20;;;;;;;1.35;0.50;;;;;;;;;;5026423;28;20080;-56
2021/06/13 06:07:46;;;;;;;0.50;0.50;;;;;;;;;;5024061;28;20045;-56
2021/06/13 06:10:13;;;;;;;1.30;0.50;;;;;;;;;;5025785;28;20046;-56
2021/06/13 06:12:42;;;;;;;1.08;0.60;;;;;;;;;;5021001;28;20289;-55
2021/06/13 06:15:10;;;;;;;2.70;0.60;;;;;;;;;;5022454;28;20091;-57
2021/06/13 06:17:38;;;;;;;3.20;0.43;;;;;;;;;;5027035;28;20045;-55
2021/06/13 06:20:06;;;;;;;0.40;0.28;;;;;;;;;;5028062;28;20042;-57
2021/06/13 06:22:32;;;;;;;0.25;0.25;;;;;;;;;;5028263;28;20033;-57
2021/06/13 06:24:59;;;;;;;0.35;0.30;;;;;;;;;;5026776;28;20037;-57
2021/06/13 06:27:27;;;;;;;0.85;0.52;;;;;;;;;;5032952;28;20095;-55
2021/06/13 06:29:54;;;;;;;0.52;0.30;;;;;;;;;;5026385;28;20560;-56
2021/06/13 06:32:21;;;;;;;1.05;0.40;;;;;;;;;;5024574;28;20509;-55
2021/06/13 06:34:49;;;;;;;0.52;0.30;;;;;;;;;;5027629;28;20037;-56
2021/06/13 06:37:15;;;;;;;0.90;0.50;;;;;;;;;;5029723;28;20501;-55
2021/06/13 06:39:42;;;;;;;0.75;0.30;;;;;;;;;;5025718;28;20570;-56
2021/06/13 06:42:09;;;;;;;0.88;0.35;;;;;;;;;;5028898;28;20033;-56
2021/06/13 06:44:36;;;;;;;2.05;0.40;;;;;;;;;;5026145;28;20052;-57
2021/06/13 06:47:02;;;;;;;0.90;0.30;;;;;;;;;;5023647;28;20103;-57
2021/06/13 06:49:30;;;;;;;0.40;0.40;;;;;;;;;;5026488;28;20037;-57
2021/06/13 06:51:58;;;;;;;0.85;0.35;;;;;;;;;;5022368;28;20049;-56
2021/06/13 06:54:25;;;;;;;1.67;0.57;;;;;;;;;;5023335;28;20057;-55
2021/06/13 06:56:52;;;;;;;1.05;0.70;;;;;;;;;;5023943;28;20350;-54
2021/06/13 06:59:19;;;;;;;1.90;0.40;;;;;;;;;;5024172;28;20416;-58
2021/06/13 07:01:46;;;;;;;0.43;0.40;;;;;;;;;;5024732;28;20033;-58
2021/06/13 07:04:14;;;;;;;2.03;0.43;;;;;;;;;;5030496;28;20522;-56
2021/06/13 07:06:42;;;;;;;0.80;0.40;;;;;;;;;;5020706;28;20077;-58
2021/06/13 07:09:09;;;;;;;1.05;0.50;;;;;;;;;;5031274;28;20041;-55
2021/06/13 07:11:37;;;;;;;1.40;0.88;;;;;;;;;;5026183;28;20061;-56
2021/06/13 07:14:03;;;;;;;0.80;0.30;;;;;;;;;;5035023;28;20505;-55
2021/06/13 07:16:30;;;;;;;0.50;0.50;;;;;;;;;;5022401;28;20033;-55
2021/06/13 07:18:57;;;;;;;0.43;0.40;;;;;;;;;;5024672;28;20524;-56
2021/06/13 07:21:23;;;;;;;1.92;0.65;;;;;;;;;;5030292;28;20041;-56
2021/06/13 07:23:50;;;;;;;2.40;0.30;;;;;;;;;;5029004;28;20057;-53
2021/06/13 07:26:17;;;;;;;0.80;0.40;;;;;;;;;;5024912;28;20424;-56
2021/06/13 07:28:44;;;;;;;1.30;0.55;;;;;;;;;;5026409;28;20124;-56
2021/06/13 07:31:11;;;;;;;0.75;0.50;;;;;;;;;;5028936;28;20033;-56
2021/06/13 07:33:39;;;;;;;2.70;0.60;;;;;;;;;;5024992;28;20046;-54
2021/06/13 07:36:06;;;;;;;0.60;0.50;;;;;;;;;;5020750;28;20076;-56
2021/06/13 07:38:32;;;;;;;0.83;0.50;;;;;;;;;;5031449;28;20056;-57
2021/06/13 07:41:05;;;;;;;3.95;0.40;;;;;;;;;;5024393;28;20060;-57
2021/06/13 07:43:32;;;;;;;0.88;0.30;;;;;;;;;;5017092;28;20062;-55
2021/06/13 07:45:59;;;;;;;1.05;0.60;;;;;;;;;;5027059;28;20144;-57
2021/06/13 07:48:26;;;;;;;1.65;0.50;;;;;;;;;;5018161;28;20758;-56
2021/06/13 07:50:52;;;;;;;1.38;0.40;;;;;;;;;;5023372;28;20042;-57
2021/06/13 07:53:19;;;;;;;1.08;0.43;;;;;;;;;;5022981;28;20042;-57
2021/06/13 07:55:46;;;;;;;2.75;0.50;;;;;;;;;;5022013;28;20038;-58
2021/06/13 07:58:13;;;;;;;1.08;0.60;;;;;;;;;;5022764;28;20050;-55
2021/06/13 08:00:39;;;;;;;1.08;0.60;;;;;;;;;;5026203;28;20056;-57
2021/06/13 08:03:06;;;;;;;1.42;0.38;;;;;;;;;;5022266;28;20041;-57
2021/06/13 08:05:39;;;;;;;0.75;0.45;;;;;;;;;;5028420;28;20112;-56
2021/06/13 08:08:06;;;;;;;0.70;0.47;;;;;;;;;;5024928;28;20497;-57
2021/06/13 08:10:34;;;;;;;0.75;0.38;;;;;;;;;;5025460;28;20049;-57
2021/06/13 08:13:04;;;;;;;0.43;0.43;;;;;;;;;;5023736;28;20128;-57
2021/06/13 08:15:31;;;;;;;1.10;0.38;;;;;;;;;;5019848;28;20041;-58
2021/06/13 08:17:58;;;;;;;0.40;0.40;;;;;;;;;;5020670;28;20454;-58
2021/06/13 08:20:26;;;;;;;0.70;0.40;;;;;;;;;;5026602;28;20394;-57
2021/06/13 08:22:53;;;;;;;2.72;0.50;;;;;;;;;;5024028;28;20045;-57
2021/06/13 08:25:21;;;;;;;1.58;0.50;;;;;;;;;;5024657;28;20034;-58
2021/06/13 08:27:48;;;;;;;0.75;0.40;;;;;;;;;;5029806;28;20049;-57
2021/06/13 08:30:16;;;;;;;3.67;0.50;;;;;;;;;;5030212;28;20044;-58
2021/06/13 08:32:44;;;;;;;5.57;0.50;;;;;;;;;;5033539;28;20096;-57
2021/06/13 08:35:11;;;;;;;0.32;0.28;;;;;;;;;;5025934;28;20044;-57
2021/06/13 08:37:38;;;;;;;1.35;0.47;;;;;;;;;;5022604;28;20048;-57
2021/06/13 08:40:07;;;;;;;0.75;0.50;;;;;;;;;;5025428;28;20053;-57
2021/06/13 08:42:35;;;;;;;0.38;0.30;;;;;;;;;;5018740;28;20033;-57
2021/06/13 08:45:02;;;;;;;0.52;0.30;;;;;;;;;;5019217;28;20037;-57
2021/06/13 08:47:34;;;;;;;0.80;0.50;;;;;;;;;;5022624;28;20050;-56
2021/06/13 08:50:01;;;;;;;1.52;0.40;;;;;;;;;;5028485;28;20618;-57
2021/06/13 08:52:27;;;;;;;1.77;0.50;;;;;;;;;;5021313;28;20387;-58
2021/06/13 08:54:54;;;;;;;0.93;0.38;;;;;;;;;;5024286;28;20805;-57
2021/06/13 08:57:22;;;;;;;1.33;0.60;;;;;;;;;;5029139;28;20634;-58
2021/06/13 08:59:48;;;;;;;0.73;0.50;;;;;;;;;;5024534;28;20041;-57
2021/06/13 09:02:17;;;;;;;1.85;0.55;;;;;;;;;;5030121;28;20525;-55
2021/06/13 09:04:44;;;;;;;0.50;0.50;;;;;;;;;;5025364;28;20524;-58
2021/06/13 09:07:14;;;;;;;0.40;0.40;;;;;;;;;;5027351;28;20113;-59
2021/06/13 09:09:42;;;;;;;0.30;0.30;;;;;;;;;;5024110;28;20050;-59
2021/06/13 09:12:10;;;;;;;0.47;0.30;;;;;;;;;;5026281;28;20173;-59
2021/06/13 09:14:39;;;;;;;1.15;0.50;;;;;;;;;;5026058;28;20068;-58
2021/06/13 09:17:05;;;;;;;;;;;;;;;;;;5024692;28;20053;-57
2021/06/13 09:19:33;;;;;;;0.22;0.22;;;;;;;;;;5020583;28;19924;-59
2021/06/13 09:22:09;;;;;;;0.30;0.30;;;;;;;;;;5024874;28;20056;-59
2021/06/13 09:24:36;;;;;;;1.35;0.50;;;;;;;;;;5023205;28;20375;-58
2021/06/13 09:27:08;;;;;;;0.30;0.30;;;;;;;;;;5021215;28;20248;-58
2021/06/13 09:29:52;;;;;;;0.57;0.43;;;;;;;;;;5026982;28;20045;-58
2021/06/13 09:32:22;;;;;;;0.60;0.40;;;;;;;;;;5027951;28;20099;-59
2021/06/13 09:35:08;;;;;;;1.77;0.50;;;;;;;;;;5030055;28;20553;-59
2021/06/13 09:37:35;;;;;;;0.43;0.32;;;;;;;;;;5022194;28;20547;-58
2021/06/13 09:40:02;;;;;;;;;;;;;;;;;;5026443;28;20041;-59
2021/06/13 09:42:30;;;;;;;0.68;0.20;;;;;;;;;;5028589;28;20399;-59
2021/06/13 09:45:00;;;;;;;1.05;0.40;;;;;;;;;;5024863;28;20556;-57
2021/06/13 09:47:29;;;;;;;0.52;0.40;;;;;;;;;;5018523;28;20126;-59
2021/06/13 09:49:56;;;;;;;1.30;0.32;;;;;;;;;;5026334;28;20459;-59
2021/06/13 09:52:26;;;;;;;3.28;0.60;;;;;;;;;;5028609;28;20048;-58
2021/06/13 09:55:12;;;;;;;0.52;0.50;;;;;;;;;;5021702;28;20050;-59
2021/06/13 09:57:57;;;;;;;0.60;0.30;;;;;;;;;;5023523;28;20081;-59
2021/06/13 10:00:25;;;;;;;3.55;0.70;;;;;;;;;;5025779;28;20616;-59
2021/06/13 10:02:52;;;;;;;1.70;0.65;;;;;;;;;;5024966;28;20051;-59
2021/06/13 10:05:19;;;;;;;2.47;0.77;;;;;;;;;;5020911;28;20441;-58
2021/06/13 10:07:46;;;;;;;2.25;0.68;;;;;;;;;;5022823;28;20610;-59
2021/06/13 10:10:13;;;;;;;1.52;0.90;;;;;;;;;;5021758;28;20112;-59
2021/06/13 10:12:55;;;;;;;4.65;0.70;;;;;;;;;;5021368;28;20040;-59
2021/06/13 10:15:35;;;;;;;2.05;0.77;;;;;;;;;;5018761;28;20041;-59
2021/06/13 10:18:10;;;;;;;3.30;0.82;;;;;;;;;;5019772;28;20043;-59
2021/06/13 10:20:37;;;;;;;1.90;0.50;;;;;;;;;;5024608;28;20051;-59
2021/06/13 10:23:05;;;;;;;0.65;0.47;;;;;;;;;;5017559;28;20038;-59
2021/06/13 10:25:31;;;;;;;1.27;0.70;;;;;;;;;;5026671;28;20033;-59
2021/06/13 10:27:59;;;;;;;5.38;0.75;;;;;;;;;;5028030;28;20048;-59
2021/06/13 10:30:26;;;;;;;4.80;0.88;;;;;;;;;;5021972;28;20061;-59
2021/06/13 10:32:53;;;;;;;3.45;1.10;;;;;;;;;;5021060;28;20152;-59
2021/06/13 10:35:21;;;;;;;3.28;0.98;;;;;;;;;;5019823;28;20171;-59
2021/06/13 10:37:48;;;;;;;5.50;1.00;;;;;;;;;;5013540;28;20508;-59
2021/06/13 10:40:17;;;;;;;2.70;0.95;;;;;;;;;;5014553;28;20100;-58
2021/06/13 10:42:46;;;;;;;2.70;0.90;;;;;;;;;;5014956;28;20046;-59
2021/06/13 10:45:16;;;;;;;2.27;0.87;;;;;;;;;;5025489;28;20449;-59
2021/06/13 10:48:02;;;;;;;5.63;1.20;;;;;;;;;;5020546;28;20049;-59
2021/06/13 10:50:32;;;;;;;2.15;0.88;;;;;;;;;;5017786;28;20079;-58
2021/06/13 10:53:00;;;;;;;2.92;1.23;;;;;;;;;;5020682;28;20455;-59
2021/06/13 10:55:45;;;;;;;2.45;1.10;;;;;;;;;;5026962;28;20072;-59
2021/06/13 10:58:32;;;;;;;2.90;1.05;;;;;;;;;;5020680;28;20057;-59
2021/06/13 11:01:26;;;;;;;5.00;1.25;;;;;;;;;;5020896;28;20053;-59
2021/06/13 11:04:08;;;;;;;1.85;0.88;;;;;;;;;;5025666;28;20501;-58
2021/06/13 11:06:35;;;;;;;1.13;0.85;;;;;;;;;;5027166;28;20041;-59
2021/06/13 11:09:05;;;;;;;4.60;0.90;;;;;;;;;;5028826;28;20462;-59
2021/06/13 11:11:33;;;;;;;2.97;1.10;;;;;;;;;;5029518;28;20374;-58
2021/06/13 11:14:18;;;;;;;3.38;0.90;;;;;;;;;;5030062;28;20128;-58
2021/06/13 11:16:46;;;;;;;2.13;0.77;;;;;;;;;;5024888;28;20581;-59
2021/06/13 11:19:25;;;;;;;1.23;0.83;;;;;;;;;;5028305;28;20072;-58
2021/06/13 11:22:11;;;;;;;5.10;1.02;;;;;;;;;;5029606;28;20320;-59
2021/06/13 11:24:49;;;;;;;1.65;0.93;;;;;;;;;;5025860;28;20523;-59
2021/06/13 11:27:16;;;;;;;1.42;0.85;;;;;;;;;;5027866;28;20467;-59
2021/06/13 11:29:54;;;;;;;1.70;0.93;;;;;;;;;;5026142;28;20038;-59
2021/06/13 11:32:41;;;;;;;3.33;1.00;;;;;;;;;;5024221;28;20041;-59
2021/06/13 11:35:22;;;;;;;1.52;0.77;;;;;;;;;;5025388;28;20045;-59
2021/06/13 11:38:07;;;;;;;1.60;0.90;;;;;;;;;;5021130;28;20758;-59
2021/06/13 11:40:35;;;;;;;3.45;1.00;;;;;;;;;;5029370;28;20049;-59
2021/06/13 11:43:09;;;;;;;1.10;0.68;;;;;;;;;;5021856;28;20041;-60
2021/06/13 11:45:36;;;;;;;2.28;0.93;;;;;;;;;;5027653;28;20498;-59
2021/06/13 11:48:19;;;;;;;0.70;0.63;;;;;;;;;;5024918;28;20057;-59
2021/06/13 11:51:08;;;;;;;3.80;1.00;;;;;;;;;;5026109;28;20136;-59
2021/06/13 11:53:52;;;;;;;1.23;0.80;;;;;;;;;;5027030;28;20049;-60
2021/06/13 11:56:34;;;;;;;1.52;0.77;;;;;;;;;;5025902;28;20414;-59
2021/06/13 11:59:02;;;;;;;1.00;0.70;;;;;;;;;;5022595;28;20802;-59
2021/06/13 12:01:30;;;;;;;1.27;0.80;;;;;;;;;;5027701;28;20033;-59
2021/06/13 12:03:57;;;;;;;1.80;0.90;;;;;;;;;;5024265;28;20133;-59
2021/06/13 12:06:23;;;;;;;2.78;0.85;;;;;;;;;;5022945;28;20038;-59
2021/06/13 12:08:51;;;;;;;3.40;1.00;;;;;;;;;;5028177;28;20049;-59
2021/06/13 12:11:31;;;;;;;1.52;0.93;;;;;;;;;;5028841;28;20056;-59
2021/06/13 12:14:14;;;;;;;1.85;0.80;;;;;;;;;;5030606;28;20038;-59
2021/06/13 12:16:41;;;;;;;2.33;0.80;;;;;;;;;;5025632;28;20045;-59
2021/06/13 12:19:08;;;;;;;2.00;0.88;;;;;;;;;;5028821;28;20107;-59
2021/06/13 12:21:35;;;;;;;1.63;0.88;;;;;;;;;;5030601;28;20636;-59
2021/06/13 12:24:39;;;;;;;1.98;0.98;;;;;;;;;;5020988;28;20042;-59
2021/06/13 12:27:27;;;;;;;4.00;0.90;;;;;;;;;;5025075;28;20045;-59
2021/06/13 12:29:58;;;;;;;3.75;1.02;;;;;;;;;;5030827;28;20076;-59
2021/06/13 12:32:26;;;;;;;2.65;1.00;;;;;;;;;;5026037;28;20091;-59
2021/06/13 12:35:05;;;;;;;2.65;0.90;;;;;;;;;;5026435;28;20041;-60
2021/06/13 12:37:33;;;;;;;1.85;0.90;;;;;;;;;;5026445;28;20084;-60
2021/06/13 12:40:01;;;;;;;0.80;0.80;;;;;;;;;;5027003;28;20041;-59
2021/06/13 12:42:28;;;;;;;2.42;1.15;;;;;;;;;;5029805;28;20561;-60
2021/06/13 12:45:12;;;;;;;2.80;1.00;;;;;;;;;;5026620;28;20049;-59
2021/06/13 12:47:40;;;;;;;2.05;1.23;;;;;;;;;;5028910;28;20041;-60
2021/06/13 12:50:09;;;;;;;3.42;1.13;;;;;;;;;;5026972;28;20037;-59
2021/06/13 12:52:46;;;;;;;3.25;1.30;;;;;;;;;;5025423;28;20041;-60
2021/06/13 12:55:17;;;;;;;2.25;1.30;;;;;;;;;;5029182;28;20098;-59
2021/06/13 12:57:47;;;;;;;2.75;1.23;;;;;;;;;;5018965;28;20048;-60
2021/06/13 13:00:16;;;;;;;5.50;1.55;;;;;;;;;;5026661;28;20045;-59
2021/06/13 13:02:43;;;;;;;2.05;1.27;;;;;;;;;;5024926;28;20046;-59
2021/06/13 13:05:09;;;;;;;;;;;;;;;;;;5022188;28;20435;-59
2021/06/13 13:07:37;;;;;;;3.05;1.17;;;;;;;;;;5021000;28;19921;-59
2021/06/13 13:10:05;;;;;;;3.22;1.45;;;;;;;;;;5024438;28;20592;-59
2021/06/13 13:12:36;;;;;;;2.35;1.30;;;;;;;;;;5024257;28;20068;-59
2021/06/13 13:15:12;;;;;;;4.38;1.20;;;;;;;;;;5026027;28;20556;-59
2021/06/13 13:17:43;;;;;;;2.00;1.10;;;;;;;;;;5023070;28;20064;-59
2021/06/13 13:20:22;;;;;;;2.28;1.17;;;;;;;;;;5023446;28;20044;-59
2021/06/13 13:22:50;;;;;;;1.83;1.48;;;;;;;;;;5020361;28;20046;-59
2021/06/13 13:25:18;;;;;;;4.07;1.45;;;;;;;;;;5023698;28;20041;-59
2021/06/13 13:27:45;;;;;;;3.63;1.50;;;;;;;;;;5030465;28;20033;-59
2021/06/13 13:30:26;;;;;;;2.60;1.63;;;;;;;;;;5024467;28;20100;-60
2021/06/13 13:32:55;;;;;;;2.30;1.45;;;;;;;;;;5021468;28;20061;-59
2021/06/13 13:35:28;;;;;;;2.17;1.48;;;;;;;;;;5025640;28;20054;-60
2021/06/13 13:37:55;;;;;;;2.80;1.40;;;;;;;;;;5028782;28;20096;-60
2021/06/13 13:40:24;;;;;;;3.38;1.38;;;;;;;;;;5025574;28;20511;-60
2021/06/13 13:42:56;;;;;;;2.03;1.30;;;;;;;;;;5025089;28;20478;-60
2021/06/13 13:45:25;;;;;;;3.47;1.63;;;;;;;;;;5021721;28;20073;-59
2021/06/13 13:48:09;;;;;;;2.40;1.30;;;;;;;;;;5024814;28;20572;-59
2021/06/13 13:50:37;;;;;;;2.33;1.20;;;;;;;;;;5029937;28;20099;-60
2021/06/13 13:53:26;;;;;;;2.38;1.50;;;;;;;;;;5026897;28;20041;-60
2021/06/13 13:56:00;;;;;;;3.03;1.60;;;;;;;;;;5025118;28;20048;-60
2021/06/13 13:58:28;;;;;;;6.15;1.65;;;;;;;;;;5030081;28;20045;-60
2021/06/13 14:00:56;;;;;;;7.03;1.50;;;;;;;;;;5027731;28;20433;-60
2021/06/13 14:03:24;;;;;;;3.78;1.55;;;;;;;;;;5031341;28;20702;-59
2021/06/13 14:05:51;;;;;;;2.83;1.73;;;;;;;;;;5020947;28;20052;-60
2021/06/13 14:08:24;;;;;;;4.55;1.80;;;;;;;;;;5025454;28;20095;-60
2021/06/13 14:10:51;;;;;;;4.57;1.50;;;;;;;;;;5021768;28;20077;-60
2021/06/13 14:13:18;;;;;;;3.15;1.80;;;;;;;;;;5021197;28;20535;-59
2021/06/13 14:15:46;;;;;;;5.60;2.20;;;;;;;;;;5020010;28;20053;-60
2021/06/13 14:18:13;;;;;;;1.83;1.38;;;;;;;;;;5027795;28;20594;-60
2021/06/13 14:20:40;;;;;;;2.67;1.35;;;;;;;;;;5018108;28;20052;-59
2021/06/13 14:23:09;;;;;;;3.58;1.40;;;;;;;;;;5021074;28;20049;-59
2021/06/13 14:25:36;;;;;;;4.45;1.77;;;;;;;;;;5022635;28;20386;-60
2021/06/13 14:28:03;;;;;;;5.45;1.65;;;;;;;;;;5024448;28;20482;-59
2021/06/13 14:30:30;;;;;;;;;;;;;;;;;;5025767;28;20080;-59
2021/06/13 14:32:57;;;;;;;5.78;1.80;;;;;;;;;;5029048;28;19921;-60
2021/06/13 14:35:23;;;;;;;5.60;1.70;;;;;;;;;;5019563;28;20073;-59
2021/06/13 14:37:50;;;;;;;3.95;2.00;;;;;;;;;;5025503;28;20057;-60
2021/06/13 14:40:17;;;;;;;2.35;1.63;;;;;;;;;;5027538;28;20049;-59
2021/06/13 14:42:45;;;;;;;2.72;1.65;;;;;;;;;;5024185;28;20037;-60
2021/06/13 14:45:13;;;;;;;3.78;1.85;;;;;;;;;;5031413;28;20091;-59
2021/06/13 14:47:40;;;;;;;4.82;2.25;;;;;;;;;;5021540;28;20054;-60
2021/06/13 14:50:07;;;;;;;5.50;1.70;;;;;;;;;;5026564;28;20061;-60
2021/06/13 14:52:35;;;;;;;3.17;1.63;;;;;;;;;;5027335;28;20057;-60
2021/06/13 14:55:01;;;;;;;4.20;1.92;;;;;;;;;;5023584;28;20057;-59
2021/06/13 14:57:28;;;;;;;7.18;1.63;;;;;;;;;;5024403;28;20049;-59
2021/06/13 14:59:55;;;;;;;5.10;1.60;;;;;;;;;;5020939;28;20496;-59
2021/06/13 15:02:22;;;;;;;7.17;1.97;;;;;;;;;;5031314;28;20098;-59